Latest Coastal Weather Observations for Arlington Reef

IDQ60701

Issued at 1:42 pm EST Friday 24 May 2019 (issued every 10 minutes, with the page automatically refreshed every 10 minutes)

About coastal observations | Map of coastal stations | Coastal observations for QLD | Marine services | Other Formats
Station Details ID: 200879 Name: ARLINGTON REEF Lat: -16.72 Lon: 146.11 Height: 0.0 m
Data from the previous 72 hours. | See also: Recent months at Arlington Reef
Date/Time
EST
Wind Sea
Height
m
Swell Vis
km
Cloud Weather Temp
°C
Press
hPa
Rain since
9am
mm
Dir  Spd
kts
Gust
kts
Height
m
Period
s
Dir
24/01:30pm S 20 24 - - - - - - - - 1015.3 -
24/01:00pm SSE 21 24 - - - - - - - - 1015.7 -
24/12:30pm SSE 22 25 - - - - - - - - 1016.1 -
24/12:00pm SSE 21 24 - - - - - - - - 1016.7 -
24/11:30am SSE 22 27 - - - - - - - - 1017.0 -
24/11:18am SSE 22 32 - - - - - - - - 1017.0 -
24/11:00am SE 17 20 - - - - - - - - 1017.4 -
24/10:58am SE 16 19 - - - - - - - - 1017.6 -
24/10:38am SE 21 25 - - - - - - - - 1017.6 -
24/10:30am SSE 20 24 - - - - - - - - 1017.4 -
24/10:00am SSE 20 23 - - - - - - - - 1017.7 -
24/09:30am SSE 21 25 - - - - - - - - 1017.4 -
24/09:00am SSE 22 26 - - - - - - - - 1017.4 -
24/08:30am SSE 21 25 - - - - - - - - 1017.3 -
24/08:00am SSE 21 24 - - - - - - - - 1017.0 -
24/07:30am SSE 22 25 - - - - - - - - 1016.8 -
24/07:00am SE 23 26 - - - - - - - - 1016.4 -
24/06:53am SE 22 26 - - - - - - - - 1016.3 -
24/06:30am ESE 19 23 - - - - - - - - 1016.5 -
24/06:16am ESE 24 29 - - - - - - - - 1016.0 -
24/06:00am SSE 17 21 - - - - - - - - 1015.8 -
24/05:30am SE 22 26 - - - - - - - - 1015.7 -
24/05:00am SE 19 21 - - - - - - - - 1015.6 -
24/04:30am SE 23 26 - - - - - - - - 1015.5 -
24/04:00am SSE 21 25 - - - - - - - - 1015.6 -
24/03:30am SSE 21 25 - - - - - - - - 1015.6 -
24/03:00am SSE 20 25 - - - - - - - - 1015.7 -
24/02:30am SSE 21 25 - - - - - - - - 1015.8 -
24/02:00am SSE 22 25 - - - - - - - - 1016.2 -
24/01:30am SSE 22 26 - - - - - - - - 1016.6 -
24/01:00am SE 23 27 - - - - - - - - 1016.7 -
24/12:30am SSE 24 28 - - - - - - - - 1017.0 -
24/12:00am SSE 22 27 - - - - - - - - 1017.3 -
 
Date/Time
EST
Wind Sea
Height
m
Swell Vis
km
Cloud Weather Temp
°C
Press
hPa
Rain since
9am
mm
Dir  Spd
kts
Gust
kts
Height
m
Period
s
Dir
23/11:37pm SSE 19 29 - - - - - - - - 1017.5 -
23/11:30pm SSE 21 24 - - - - - - - - 1017.6 -
23/11:00pm SSE 22 27 - - - - - - - - 1017.9 -
23/10:30pm SSE 21 25 - - - - - - - - 1018.0 -
23/10:00pm SE 23 27 - - - - - - - - 1017.9 -
23/09:30pm SE 24 28 - - - - - - - - 1017.9 -
23/09:00pm SSE 21 25 - - - - - - - - 1017.9 -
23/08:30pm SE 22 27 - - - - - - - - 1017.7 -
23/08:00pm SE 20 24 - - - - - - - - 1017.6 -
23/07:39pm SE 21 33 - - - - - - - - 1017.6 -
23/07:34pm SE 17 26 - - - - - - - - 1017.5 -
23/07:32pm SSE 16 26 - - - - - - - - 1017.5 -
23/07:30pm SSE 15 22 - - - - - - - - 1017.6 -
23/07:00pm SSE 21 27 - - - - - - - - 1017.2 -
23/06:30pm SE 23 28 - - - - - - - - 1017.0 -
23/06:00pm SE 21 26 - - - - - - - - 1016.9 -
23/05:30pm SSE 15 26 - - - - - - - - 1016.5 -
23/05:24pm SSE 13 17 - - - - - - - - 1016.6 -
23/05:04pm SE 21 29 - - - - - - - - 1016.4 -
23/05:00pm SSE 19 23 - - - - - - - - 1016.5 -
23/04:30pm SE 20 23 - - - - - - - - 1016.4 -
23/04:00pm SE 20 23 - - - - - - - - 1016.2 -
23/03:30pm SE 21 26 - - - - - - - - 1016.3 -
23/03:00pm SE 21 25 - - - - - - - - 1016.1 -
23/02:30pm SE 21 24 - - - - - - - - 1016.3 -
23/02:00pm ESE 21 27 - - - - - - - - 1016.6 -
23/01:30pm SE 18 22 - - - - - - - - 1016.9 -
23/01:00pm SE 21 25 - - - - - - - - 1017.2 -
23/12:30pm SE 25 30 - - - - - - - - 1017.7 -
23/12:00pm ESE 24 29 - - - - - - - - 1018.2 -
23/11:41am SE 22 28 - - - - - - - - 1018.3 -
23/11:30am SSE 24 29 - - - - - - - - 1018.1 -
23/11:00am SSE 23 27 - - - - - - - - 1018.3 -
23/10:30am SSE 22 25 - - - - - - - - 1018.8 -
23/10:00am SE 24 29 - - - - - - - - 1018.8 -
23/09:43am SE 17 28 - - - - - - - - 1018.6 -
23/09:37am SE 17 28 - - - - - - - - 1018.9 -
23/09:30am SSE 18 20 - - - - - - - - 1018.8 -
23/09:00am SE 22 27 - - - - - - - - 1018.7 -
23/08:30am SE 18 22 - - - - - - - - 1018.5 -
23/08:00am SSE 19 21 - - - - - - - - 1018.0 -
23/07:30am SSE 21 25 - - - - - - - - 1017.8 -
23/07:00am SSE 21 26 - - - - - - - - 1017.4 -
23/06:30am SE 21 25 - - - - - - - - 1017.3 -
23/06:00am SE 20 25 - - - - - - - - 1016.8 -
23/05:30am SE 19 23 - - - - - - - - 1016.4 -
23/05:00am SE 22 25 - - - - - - - - 1016.0 -
23/04:30am SE 21 25 - - - - - - - - 1016.1 -
23/04:00am SE 21 25 - - - - - - - - 1016.1 -
23/03:30am SE 21 25 - - - - - - - - 1016.2 -
23/03:00am SE 20 22 - - - - - - - - 1016.3 -
23/02:30am SE 21 25 - - - - - - - - 1016.6 -
23/02:00am SE 18 26 - - - - - - - - 1016.9 -
23/01:30am ESE 23 33 - - - - - - - - 1017.0 -
23/01:25am SE 19 32 - - - - - - - - 1017.1 -
23/01:00am SE 19 24 - - - - - - - - 1017.4 -
23/12:30am SE 20 25 - - - - - - - - 1017.3 -
23/12:00am ESE 22 27 - - - - - - - - 1017.6 -
 
Date/Time
EST
Wind Sea
Height
m
Swell Vis
km
Cloud Weather Temp
°C
Press
hPa
Rain since
9am
mm
Dir  Spd
kts
Gust
kts
Height
m
Period
s
Dir
22/11:47pm SE 22 32 - - - - - - - - 1017.7 -
22/11:30pm SE 20 25 - - - - - - - - 1017.7 -
22/11:00pm SE 21 26 - - - - - - - - 1017.9 -
22/10:30pm SE 21 26 - - - - - - - - 1017.9 -
22/10:00pm SE 21 25 - - - - - - - - 1018.0 -
22/09:30pm SE 20 25 - - - - - - - - 1017.9 -
22/09:10pm SE 26 35 - - - - - - - - 1018.2 -
22/09:04pm SE 24 35 - - - - - - - - 1017.9 -
22/09:00pm SE 20 31 - - - - - - - - 1018.0 -
22/08:30pm SSE 19 25 - - - - - - - - 1017.7 -
22/08:00pm SE 14 18 - - - - - - - - 1017.8 -
22/07:30pm SE 19 23 - - - - - - - - 1017.9 -
22/07:00pm SE 20 25 - - - - - - - - 1017.3 -
22/06:30pm SSE 22 27 - - - - - - - - 1016.9 -
22/06:00pm S 20 25 - - - - - - - - 1016.6 -
22/05:30pm S 18 21 - - - - - - - - 1016.7 -
22/05:00pm SSE 21 27 - - - - - - - - 1016.5 -
22/04:30pm SSE 21 28 - - - - - - - - 1016.4 -
22/04:00pm SSE 20 23 - - - - - - - - 1016.4 -
22/03:30pm SSE 21 27 - - - - - - - - 1016.1 -
22/03:00pm SSE 20 23 - - - - - - - - 1016.0 -
22/02:30pm SSE 18 21 - - - - - - - - 1016.0 -
22/02:00pm SSE 20 23 - - - - - - - - 1016.2 -
22/01:30pm SSE 20 22 - - - - - - - - 1016.8 -
22/01:00pm SE 19 22 - - - - - - - - 1017.2 -
22/12:30pm SSE 21 24 - - - - - - - - 1017.7 -
22/12:00pm SSE 19 22 - - - - - - - - 1018.2 -
22/11:30am SSE 18 21 - - - - - - - - 1018.5 -
22/11:00am SSE 18 22 - - - - - - - - 1019.0 -
22/10:30am SE 19 23 - - - - - - - - 1019.1 -
22/10:00am SE 20 23 - - - - - - - - 1019.1 -
22/09:30am SE 20 24 - - - - - - - - 1019.2 -
22/09:00am SE 21 25 - - - - - - - - 1019.1 -
22/08:30am SE 21 26 - - - - - - - - 1018.9 -
22/08:00am SE 22 26 - - - - - - - - 1018.5 -
22/07:30am SE 22 26 - - - - - - - - 1018.1 -
22/07:00am SE 22 26 - - - - - - - - 1017.9 -
22/06:30am SE 18 24 - - - - - - - - 1017.7 -
22/06:00am SE 21 25 - - - - - - - - 1017.4 -
22/05:30am ESE 22 25 - - - - - - - - 1017.1 -
22/05:00am E 23 28 - - - - - - - - 1017.1 -
22/04:30am SE 23 27 - - - - - - - - 1017.0 -
22/04:00am SE 25 30 - - - - - - - - 1016.9 -
22/03:30am SE 27 34 - - - - - - - - 1017.0 -
22/03:25am SE 23 34 - - - - - - - - 1016.8 -
22/03:00am SE 22 27 - - - - - - - - 1016.8 -
22/02:30am SE 24 29 - - - - - - - - 1017.0 -
22/02:00am SE 22 29 - - - - - - - - 1017.1 -
22/01:30am SE 27 35 - - - - - - - - 1017.0 -
22/01:24am SE 22 32 - - - - - - - - 1017.0 -
22/01:00am SE 21 24 - - - - - - - - 1017.2 -
22/12:30am SE 21 25 - - - - - - - - 1017.3 -
22/12:00am SE 22 26 - - - - - - - - 1017.4 -
 
Date/Time
EST
Wind Sea
Height
m
Swell Vis
km
Cloud Weather Temp
°C
Press
hPa
Rain since
9am
mm
Dir  Spd
kts
Gust
kts
Height
m
Period
s
Dir
21/11:30pm SE 23 27 - - - - - - - - 1017.5 -
21/11:04pm SE 18 29 - - - - - - - - 1017.7 -
21/11:00pm SE 20 29 - - - - - - - - 1017.9 -
21/10:30pm SE 22 26 - - - - - - - - 1017.7 -
21/10:00pm SE 23 26 - - - - - - - - 1017.7 -
21/09:30pm SE 20 24 - - - - - - - - 1017.8 -
21/09:00pm SE 22 26 - - - - - - - - 1017.7 -
21/08:31pm SE 24 34 - - - - - - - - 1017.5 -
21/08:30pm SE 25 34 - - - - - - - - 1017.5 -
21/08:23pm SSE 25 34 - - - - - - - - 1017.2 -
21/08:00pm SSE 20 24 - - - - - - - - 1017.2 -
21/07:30pm SSE 22 25 - - - - - - - - 1017.0 -
21/07:00pm SSE 21 25 - - - - - - - - 1016.5 -
21/06:30pm SSE 17 24 - - - - - - - - 1016.5 -
21/06:00pm S 19 23 - - - - - - - - 1016.1 -
21/05:30pm SSE 19 24 - - - - - - - - 1015.8 -
21/05:00pm S 16 19 - - - - - - - - 1015.5 -
21/04:30pm S 18 22 - - - - - - - - 1015.3 -
21/04:00pm S 21 24 - - - - - - - - 1015.2 -
21/03:30pm S 20 24 - - - - - - - - 1015.1 -
21/03:00pm SSE 16 18 - - - - - - - - 1015.6 -
21/02:30pm SSE 23 26 - - - - - - - - 1015.6 -
21/02:00pm S 22 26 - - - - - - - - 1015.4 -

Other formats

Comma delimited format used in spreadsheet applications
http://www.bom.gov.au/fwo/IDQ60701/IDQ60701.94284.axf

JavaScript Object Notation format (JSON) in row-major order
http://www.bom.gov.au/fwo/IDQ60701/IDQ60701.94284.json

Data quality

Most of these data are generated automatically and are frequently updated. Quality checks on data are not normally performed. It is possible for incorrect values to appear. Refer to information at About Latest Weather Observations and please check the disclaimer before using these data.